createdAt,value
2022-08-27T00:00:17.061Z,2.90
2022-08-27T00:02:44.218Z,3.25
2022-08-27T00:05:12.567Z,3.40
2022-08-27T00:07:40.641Z,3.00
2022-08-27T00:10:10.876Z,3.03
2022-08-27T00:12:38.011Z,3.90
2022-08-27T00:15:06.929Z,3.20
2022-08-27T00:17:35.259Z,3.50
2022-08-27T00:20:02.727Z,3.17
2022-08-27T00:22:29.408Z,3.00
2022-08-27T00:24:55.991Z,2.80
2022-08-27T00:27:22.686Z,2.90
2022-08-27T00:29:49.670Z,2.55
2022-08-27T00:32:17.158Z,3.43
2022-08-27T00:34:43.854Z,3.30
2022-08-27T00:37:10.968Z,2.55
2022-08-27T00:39:37.558Z,3.05
2022-08-27T00:42:05.862Z,3.00
2022-08-27T00:44:32.696Z,3.47
2022-08-27T00:47:04.189Z,3.25
2022-08-27T00:49:46.947Z,3.53
2022-08-27T00:52:25.739Z,2.70
2022-08-27T00:54:56.954Z,3.70
2022-08-27T00:57:24.039Z,3.13
2022-08-27T00:59:50.885Z,3.25
2022-08-27T01:02:20.199Z,2.80
2022-08-27T01:05:01.433Z,2.50
2022-08-27T01:07:31.949Z,2.28
2022-08-27T01:10:01.116Z,2.73
2022-08-27T01:12:30.428Z,2.45
2022-08-27T01:14:57.444Z,2.47
2022-08-27T01:17:24.960Z,2.30
2022-08-27T01:19:56.842Z,3.35
2022-08-27T01:23:01.024Z,2.57
2022-08-27T01:25:29.215Z,2.97
2022-08-27T01:28:00.590Z,2.97
2022-08-27T01:30:27.826Z,2.90
2022-08-27T01:32:55.762Z,3.35
2022-08-27T01:35:23.640Z,3.13
2022-08-27T01:37:53.709Z,3.33
2022-08-27T01:40:24.044Z,3.47
2022-08-27T01:42:55.661Z,3.45
2022-08-27T01:45:26.191Z,3.25
2022-08-27T01:47:53.252Z,3.47
2022-08-27T01:50:24.460Z,3.38
2022-08-27T01:52:52.087Z,3.83
2022-08-27T01:55:22.712Z,3.28
2022-08-27T01:57:49.720Z,3.13
2022-08-27T02:00:23.748Z,3.47
2022-08-27T02:02:50.810Z,3.33
2022-08-27T02:05:18.303Z,3.20
2022-08-27T02:07:45.488Z,3.10
2022-08-27T02:10:17.560Z,3.20
2022-08-27T02:12:44.237Z,3.10
2022-08-27T02:15:12.246Z,2.40
2022-08-27T02:17:38.898Z,3.10
2022-08-27T02:20:09.291Z,3.13
2022-08-27T02:22:35.948Z,3.58
2022-08-27T02:25:02.664Z,3.47
2022-08-27T02:27:29.463Z,3.05
2022-08-27T02:29:56.103Z,3.17
2022-08-27T02:32:31.887Z,3.50
2022-08-27T02:34:59.404Z,3.47
2022-08-27T02:37:26.962Z,3.70
2022-08-27T02:39:54.340Z,3.30
2022-08-27T02:42:21.060Z,3.85
2022-08-27T02:44:48.038Z,4.25
2022-08-27T02:47:15.463Z,4.00
2022-08-27T02:49:42.499Z,4.47
2022-08-27T02:52:09.248Z,4.00
2022-08-27T02:54:35.837Z,4.43
2022-08-27T02:57:02.478Z,4.00
2022-08-27T02:59:29.096Z,3.75
2022-08-27T03:01:55.900Z,3.13
2022-08-27T03:04:23.849Z,3.75
2022-08-27T03:06:50.571Z,3.22
2022-08-27T03:09:17.184Z,3.05
2022-08-27T03:11:43.796Z,3.65
2022-08-27T03:14:10.397Z,3.67
2022-08-27T03:16:38.111Z,3.83
2022-08-27T03:19:07.311Z,3.65
2022-08-27T03:21:35.488Z,2.83
2022-08-27T03:24:09.440Z,3.50
2022-08-27T03:26:41.281Z,3.37
2022-08-27T03:29:08.032Z,3.67
2022-08-27T03:31:34.899Z,3.50
2022-08-27T03:34:06.766Z,3.78
2022-08-27T03:36:34.000Z,3.10
2022-08-27T03:39:00.681Z,3.53
2022-08-27T03:41:45.462Z,3.58
2022-08-27T03:44:21.449Z,3.75
2022-08-27T03:46:48.825Z,4.47
2022-08-27T03:49:15.558Z,5.47
2022-08-27T03:51:47.439Z,6.50
2022-08-27T03:54:14.087Z,7.53
2022-08-27T03:56:41.772Z,7.97
2022-08-27T03:59:08.794Z,7.50
2022-08-27T04:01:36.050Z,8.20
2022-08-27T04:04:03.111Z,7.43
2022-08-27T04:06:29.744Z,7.25
2022-08-27T04:08:56.526Z,7.82
2022-08-27T04:11:23.472Z,6.75
2022-08-27T04:13:50.238Z,6.88
2022-08-27T04:16:17.021Z,6.07
2022-08-27T04:18:43.656Z,4.28
2022-08-27T04:21:12.931Z,3.90
2022-08-27T04:23:41.144Z,4.25
2022-08-27T04:26:09.760Z,4.45
2022-08-27T04:28:38.626Z,4.27
2022-08-27T04:31:05.584Z,4.13
2022-08-27T04:33:32.569Z,4.75
2022-08-27T04:36:03.667Z,5.25
2022-08-27T04:38:30.280Z,4.65
2022-08-27T04:41:17.437Z,5.43
2022-08-27T04:43:44.001Z,6.55
2022-08-27T04:46:10.649Z,6.13
2022-08-27T04:48:38.527Z,5.85
2022-08-27T04:51:05.273Z,5.15
2022-08-27T04:53:33.436Z,5.33
2022-08-27T04:56:00.046Z,5.60
2022-08-27T04:58:26.662Z,5.25
2022-08-27T05:00:56.010Z,4.82
2022-08-27T05:03:24.380Z,5.07
2022-08-27T05:05:51.828Z,4.50
2022-08-27T05:08:18.554Z,4.45
2022-08-27T05:10:50.431Z,4.72
2022-08-27T05:13:19.122Z,4.15
2022-08-27T05:15:46.751Z,5.28
2022-08-27T05:18:14.386Z,5.40
2022-08-27T05:20:48.613Z,6.05
2022-08-27T05:23:17.719Z,7.88
2022-08-27T05:25:46.304Z,7.45
2022-08-27T05:28:14.737Z,8.02
2022-08-27T05:30:44.797Z,7.47
2022-08-27T05:33:19.511Z,8.60
2022-08-27T05:35:48.621Z,7.47
2022-08-27T05:38:16.574Z,7.25
2022-08-27T05:40:43.979Z,6.65
2022-08-27T05:43:15.415Z,6.27
2022-08-27T05:45:44.190Z,6.30
2022-08-27T05:48:13.565Z,5.95
2022-08-27T05:50:42.007Z,6.60
2022-08-27T05:53:09.928Z,6.95
2022-08-27T05:55:45.148Z,6.87
2022-08-27T05:58:33.532Z,6.32
2022-08-27T06:01:10.252Z,6.90
2022-08-27T06:03:38.407Z,8.05
2022-08-27T06:06:11.145Z,6.30
2022-08-27T06:08:38.918Z,7.30
2022-08-27T06:11:07.239Z,6.22
2022-08-27T06:13:35.353Z,5.85
2022-08-27T06:16:06.790Z,6.20
2022-08-27T06:18:35.307Z,4.82
2022-08-27T06:21:02.178Z,5.33
2022-08-27T06:23:29.686Z,6.20
2022-08-27T06:25:57.535Z,5.45
2022-08-27T06:28:29.702Z,4.07
2022-08-27T06:31:04.669Z,3.85
2022-08-27T06:33:31.551Z,3.87
2022-08-27T06:36:02.068Z,3.95
2022-08-27T06:38:29.240Z,3.47
2022-08-27T06:40:56.596Z,3.35
2022-08-27T06:43:25.190Z,3.70
2022-08-27T06:45:53.499Z,3.27
2022-08-27T06:48:20.244Z,2.85
2022-08-27T06:50:47.391Z,2.83
2022-08-27T06:53:14.534Z,2.22
2022-08-27T06:55:47.560Z,2.60
2022-08-27T06:58:15.603Z,2.00
2022-08-27T07:00:46.088Z,1.98
2022-08-27T07:03:15.461Z,2.00
2022-08-27T07:05:42.069Z,2.17
2022-08-27T07:08:10.303Z,1.85
2022-08-27T07:10:37.997Z,2.20
2022-08-27T07:13:05.151Z,2.22
2022-08-27T07:15:32.982Z,1.73
2022-08-27T07:18:01.939Z,1.80
2022-08-27T07:20:32.222Z,1.60
2022-08-27T07:23:00.939Z,1.80
2022-08-27T07:25:27.699Z,1.70
2022-08-27T07:27:54.295Z,1.90
2022-08-27T07:30:21.069Z,2.10
2022-08-27T07:32:48.763Z,1.80
2022-08-27T07:35:15.350Z,1.58
2022-08-27T07:37:42.609Z,2.83
2022-08-27T07:40:13.031Z,1.70
2022-08-27T07:43:00.647Z,1.30
2022-08-27T07:45:29.730Z,1.75
2022-08-27T07:47:56.423Z,1.48
2022-08-27T07:50:23.679Z,1.83
2022-08-27T07:52:51.441Z,1.63
2022-08-27T07:55:18.847Z,1.15
2022-08-27T07:57:45.512Z,1.70
2022-08-27T08:00:13.189Z,1.63
2022-08-27T08:02:42.197Z,1.85
2022-08-27T08:05:10.134Z,1.50
2022-08-27T08:07:38.561Z,1.35
2022-08-27T08:10:07.889Z,1.33
2022-08-27T08:12:39.468Z,1.45
2022-08-27T08:15:08.840Z,1.70
2022-08-27T08:17:35.954Z,1.70
2022-08-27T08:20:31.154Z,1.80
2022-08-27T08:22:51.573Z,1.50
2022-08-27T08:25:18.318Z,1.73
2022-08-27T08:27:45.209Z,1.60
2022-08-27T08:30:12.239Z,1.40
2022-08-27T08:32:39.296Z,1.55
2022-08-27T08:35:08.077Z,1.50
2022-08-27T08:37:35.162Z,1.10
2022-08-27T08:40:02.668Z,1.90
2022-08-27T08:42:51.376Z,1.30
2022-08-27T08:45:22.828Z,1.33
2022-08-27T08:48:04.421Z,1.40
2022-08-27T08:50:49.892Z,1.27
2022-08-27T08:53:24.273Z,1.52
2022-08-27T08:55:59.173Z,1.57
2022-08-27T08:58:47.636Z,1.30
2022-08-27T09:01:18.629Z,1.42
2022-08-27T09:03:54.771Z,1.33
2022-08-27T09:06:32.300Z,1.42
2022-08-27T09:09:08.401Z,1.10
2022-08-27T09:11:46.631Z,1.38
2022-08-27T09:14:26.878Z,1.33
2022-08-27T09:16:56.371Z,1.40
2022-08-27T09:19:24.819Z,1.20
2022-08-27T09:22:01.743Z,1.33
2022-08-27T09:24:36.088Z,1.10
2022-08-27T09:27:02.811Z,1.20
2022-08-27T09:29:29.971Z,1.50
2022-08-27T09:32:00.246Z,1.10
2022-08-27T09:34:35.198Z,1.20
2022-08-27T09:37:15.345Z,1.43
2022-08-27T09:40:22.953Z,1.20
2022-08-27T09:43:22.749Z,1.30
2022-08-27T09:45:55.439Z,1.33
2022-08-27T09:48:26.716Z,1.60
2022-08-27T09:51:27.476Z,1.27
2022-08-27T09:53:56.163Z,1.70
2022-08-27T09:56:33.331Z,1.33
2022-08-27T09:59:22.785Z,1.38
2022-08-27T10:01:51.589Z,1.65
2022-08-27T10:04:38.084Z,1.40
2022-08-27T10:07:42.028Z,1.48
2022-08-27T10:10:43.240Z,2.20
2022-08-27T10:13:21.824Z,1.60
2022-08-27T10:16:06.521Z,2.05
2022-08-27T10:18:59.016Z,2.13
2022-08-27T10:21:49.937Z,1.80
2022-08-27T10:25:05.780Z,1.70
2022-08-27T10:28:01.474Z,1.65
2022-08-27T10:30:52.641Z,1.50
2022-08-27T10:33:23.387Z,2.10
2022-08-27T10:36:04.319Z,1.98
2022-08-27T10:38:49.805Z,2.00
2022-08-27T10:41:25.290Z,1.95
2022-08-27T10:44:39.824Z,2.00
2022-08-27T10:47:09.015Z,1.40
2022-08-27T10:50:00.954Z,1.73
2022-08-27T10:52:46.065Z,1.83
2022-08-27T10:55:23.981Z,2.00
2022-08-27T10:58:35.666Z,2.17
2022-08-27T11:01:05.255Z,1.50
2022-08-27T11:03:33.261Z,1.88
2022-08-27T11:06:07.346Z,2.22
2022-08-27T11:08:49.952Z,1.95
2022-08-27T11:14:40.691Z,2.83
2022-08-27T11:17:20.597Z,1.85
2022-08-27T11:20:07.017Z,2.10
2022-08-27T11:22:42.434Z,2.40
2022-08-27T11:25:13.743Z,2.08
2022-08-27T11:27:41.374Z,1.60
2022-08-27T11:30:11.372Z,2.20
2022-08-27T11:32:46.398Z,2.20
2022-08-27T11:35:23.130Z,2.13
2022-08-27T11:38:17.497Z,2.40
2022-08-27T11:41:09.819Z,1.73
2022-08-27T11:43:37.860Z,1.60
2022-08-27T11:46:08.247Z,2.08
2022-08-27T11:48:40.856Z,2.13
2022-08-27T11:51:15.921Z,2.20
2022-08-27T11:54:01.923Z,2.00
2022-08-27T11:56:32.913Z,2.28
2022-08-27T11:59:10.480Z,1.92
2022-08-27T12:01:38.429Z,1.73
2022-08-27T12:04:21.747Z,1.73
2022-08-27T12:07:04.221Z,2.23
2022-08-27T12:09:53.700Z,2.10
2022-08-27T12:12:54.364Z,1.80
2022-08-27T12:15:50.599Z,1.88
2022-08-27T12:18:54.183Z,2.00
2022-08-27T12:21:23.806Z,1.53
2022-08-27T12:23:51.111Z,1.40
2022-08-27T12:26:26.502Z,1.65
2022-08-27T12:29:18.465Z,1.60
2022-08-27T12:31:48.782Z,1.63
2022-08-27T12:34:23.197Z,1.30
2022-08-27T12:36:52.621Z,1.63
2022-08-27T12:39:26.927Z,1.60
2022-08-27T12:41:55.854Z,1.60
2022-08-27T12:44:33.540Z,1.80
2022-08-27T12:47:05.550Z,1.80
2022-08-27T12:49:57.755Z,1.45
2022-08-27T12:52:58.909Z,2.10
2022-08-27T12:55:40.004Z,2.03
2022-08-27T12:58:34.813Z,1.77
2022-08-27T13:01:36.107Z,1.50
2022-08-27T13:04:18.818Z,1.90
2022-08-27T13:06:58.360Z,1.80
2022-08-27T13:09:37.919Z,1.80
2022-08-27T13:12:14.746Z,2.08
2022-08-27T13:14:41.805Z,1.47
2022-08-27T13:17:11.609Z,1.90
2022-08-27T13:19:59.371Z,1.70
2022-08-27T13:22:38.858Z,1.83
2022-08-27T13:25:18.963Z,1.60
2022-08-27T13:27:59.520Z,1.40
2022-08-27T13:30:35.710Z,1.98
2022-08-27T13:33:05.697Z,1.75
2022-08-27T13:35:32.868Z,2.20
2022-08-27T13:38:01.311Z,1.67
2022-08-27T13:40:34.670Z,1.60
2022-08-27T13:43:09.302Z,1.55
2022-08-27T13:45:38.751Z,1.70
2022-08-27T13:48:06.566Z,1.30
2022-08-27T13:50:36.186Z,1.50
2022-08-27T13:53:27.910Z,1.50
2022-08-27T13:55:56.618Z,1.70
2022-08-27T13:58:27.903Z,1.37
2022-08-27T14:00:56.068Z,1.48
2022-08-27T14:03:25.855Z,2.05
2022-08-27T14:05:53.325Z,1.45
2022-08-27T14:08:20.930Z,1.42
2022-08-27T14:11:02.078Z,1.43
2022-08-27T14:13:31.538Z,1.45
2022-08-27T14:16:00.207Z,1.30
2022-08-27T14:18:57.386Z,1.40
2022-08-27T14:21:19.968Z,1.63
2022-08-27T14:23:46.640Z,1.90
2022-08-27T14:26:13.986Z,1.77
2022-08-27T14:28:42.869Z,1.50
2022-08-27T14:31:09.793Z,1.70
2022-08-27T14:33:36.448Z,2.20
2022-08-27T14:36:03.630Z,1.38
2022-08-27T14:38:32.082Z,1.88
2022-08-27T14:40:58.833Z,1.50
2022-08-27T14:43:25.809Z,1.40
2022-08-27T14:45:54.024Z,1.67
2022-08-27T14:48:28.653Z,1.60
2022-08-27T14:50:56.832Z,1.30
2022-08-27T14:53:23.674Z,1.47
2022-08-27T14:55:52.161Z,1.77
2022-08-27T14:58:19.735Z,1.70
2022-08-27T15:00:46.561Z,1.90
2022-08-27T15:03:13.273Z,1.42
2022-08-27T15:05:40.041Z,1.50
2022-08-27T15:08:07.702Z,1.35
2022-08-27T15:10:39.811Z,1.48
2022-08-27T15:13:06.447Z,1.67
2022-08-27T15:15:33.113Z,2.25
2022-08-27T15:17:59.737Z,1.60
2022-08-27T15:20:26.326Z,1.35
2022-08-27T15:22:53.223Z,1.70
2022-08-27T15:25:21.015Z,1.38
2022-08-27T15:27:47.646Z,1.58
2022-08-27T15:30:15.973Z,1.40
2022-08-27T15:32:46.058Z,1.67
2022-08-27T15:35:15.657Z,1.48
2022-08-27T15:37:43.281Z,1.50
2022-08-27T15:40:11.808Z,1.33
2022-08-27T15:42:38.495Z,1.40
2022-08-27T15:45:06.906Z,1.45
2022-08-27T15:47:34.206Z,1.42
2022-08-27T15:50:00.814Z,1.48
2022-08-27T15:52:40.331Z,1.45
2022-08-27T15:55:16.611Z,1.40
2022-08-27T15:57:43.189Z,1.48
2022-08-27T16:00:10.789Z,1.30
2022-08-27T16:02:37.378Z,1.20
2022-08-27T16:05:04.156Z,1.30
2022-08-27T16:07:30.720Z,1.33
2022-08-27T16:09:57.389Z,1.30
2022-08-27T16:12:27.292Z,1.30
2022-08-27T16:14:55.201Z,2.15
2022-08-27T16:17:22.258Z,1.27
2022-08-27T16:19:49.462Z,1.10
2022-08-27T16:22:16.412Z,1.50
2022-08-27T16:24:43.160Z,1.25
2022-08-27T16:27:09.878Z,1.73
2022-08-27T16:29:36.714Z,1.88
2022-08-27T16:32:04.573Z,1.20
2022-08-27T16:34:32.671Z,1.30
2022-08-27T16:37:00.153Z,1.30
2022-08-27T16:39:31.789Z,1.10
2022-08-27T16:42:00.565Z,1.10
2022-08-27T16:44:27.277Z,1.20
2022-08-27T16:46:53.823Z,1.70
2022-08-27T16:49:38.663Z,1.10
2022-08-27T16:52:06.823Z,1.00
2022-08-27T16:54:34.054Z,1.60
2022-08-27T16:57:01.097Z,1.70
2022-08-27T16:59:27.710Z,1.45
2022-08-27T17:01:55.344Z,1.20
2022-08-27T17:04:29.701Z,1.20
2022-08-27T17:06:58.332Z,1.45
2022-08-27T17:09:25.158Z,1.40
2022-08-27T17:11:57.130Z,1.52
2022-08-27T17:14:24.159Z,1.52
2022-08-27T17:16:51.117Z,0.90
2022-08-27T17:19:18.849Z,1.60
2022-08-27T17:21:45.780Z,2.67
2022-08-27T17:24:12.984Z,1.45
2022-08-27T17:26:40.204Z,1.80
2022-08-27T17:29:06.828Z,1.00
2022-08-27T17:31:37.266Z,1.40
2022-08-27T17:34:05.758Z,1.20
2022-08-27T17:36:33.146Z,1.30
2022-08-27T17:39:00.505Z,1.17
2022-08-27T17:41:34.469Z,1.10
2022-08-27T17:44:12.079Z,1.25
2022-08-27T17:46:38.633Z,1.30
2022-08-27T17:49:05.272Z,1.17
2022-08-27T17:51:31.988Z,1.55
2022-08-27T17:54:01.138Z,1.48
2022-08-27T17:56:29.576Z,1.35
2022-08-27T17:58:56.534Z,1.10
2022-08-27T18:01:30.363Z,1.52
2022-08-27T18:03:58.346Z,1.50
2022-08-27T18:06:26.688Z,1.40
2022-08-27T18:08:53.488Z,1.52
2022-08-27T18:11:20.528Z,1.80
2022-08-27T18:13:54.004Z,1.58
2022-08-27T18:16:21.343Z,1.80
2022-08-27T18:18:48.299Z,1.30
2022-08-27T18:21:24.928Z,2.03
2022-08-27T18:23:51.959Z,1.43
2022-08-27T18:26:21.558Z,1.55
2022-08-27T18:28:49.238Z,1.40
2022-08-27T18:31:18.429Z,2.00
2022-08-27T18:33:45.125Z,1.40
2022-08-27T18:36:12.000Z,1.80
2022-08-27T18:38:38.605Z,1.38
2022-08-27T18:41:06.494Z,1.50
2022-08-27T18:43:35.354Z,1.40
2022-08-27T18:46:03.793Z,1.40
2022-08-27T18:48:30.472Z,1.80
2022-08-27T18:50:59.466Z,1.75
2022-08-27T18:53:28.899Z,2.05
2022-08-27T18:55:56.029Z,1.77
2022-08-27T18:58:22.801Z,1.70
2022-08-27T19:00:53.631Z,1.33
2022-08-27T19:03:26.905Z,1.70
2022-08-27T19:05:54.959Z,1.40
2022-08-27T19:08:23.052Z,1.75
2022-08-27T19:10:49.617Z,1.67
2022-08-27T19:13:16.274Z,1.30
2022-08-27T19:15:47.150Z,1.83
2022-08-27T19:18:13.707Z,1.63
2022-08-27T19:20:40.382Z,1.50
2022-08-27T19:23:06.920Z,1.48
2022-08-27T19:25:33.584Z,1.47
2022-08-27T19:28:00.406Z,1.48
2022-08-27T19:30:27.013Z,1.30
2022-08-27T19:32:54.708Z,1.40
2022-08-27T19:35:23.741Z,1.70
2022-08-27T19:37:53.490Z,1.63
2022-08-27T19:40:22.202Z,1.73
2022-08-27T19:42:49.572Z,1.70
2022-08-27T19:45:16.332Z,1.55
2022-08-27T19:47:50.768Z,2.10
2022-08-27T19:50:17.910Z,1.47
2022-08-27T19:52:44.772Z,1.98
2022-08-27T19:55:14.134Z,1.60
2022-08-27T19:57:42.949Z,1.52
2022-08-27T20:00:11.839Z,1.70
2022-08-27T20:02:38.475Z,1.60
2022-08-27T20:05:22.030Z,1.40
2022-08-27T20:07:51.099Z,2.00
2022-08-27T20:10:19.594Z,2.13
2022-08-27T20:12:48.432Z,1.55
2022-08-27T20:15:15.687Z,1.70
2022-08-27T20:17:42.782Z,1.48
2022-08-27T20:20:10.757Z,1.63
2022-08-27T20:22:39.700Z,1.73
2022-08-27T20:25:06.917Z,1.67
2022-08-27T20:27:33.648Z,2.43
2022-08-27T20:30:00.267Z,2.30
2022-08-27T20:32:29.961Z,1.80
2022-08-27T20:34:57.171Z,1.52
2022-08-27T20:37:24.398Z,2.30
2022-08-27T20:39:52.533Z,1.60
2022-08-27T20:42:20.038Z,1.40
2022-08-27T20:44:47.491Z,1.95
2022-08-27T20:47:15.466Z,1.60
2022-08-27T20:49:44.575Z,2.05
2022-08-27T20:52:12.929Z,2.33
2022-08-27T20:54:39.990Z,1.60
2022-08-27T20:57:08.175Z,1.42
2022-08-27T20:59:53.109Z,1.80
2022-08-27T21:02:25.711Z,1.70
2022-08-27T21:04:53.096Z,1.60
2022-08-27T21:07:21.412Z,2.00
2022-08-27T21:09:57.260Z,1.88
2022-08-27T21:12:28.096Z,1.85
2022-08-27T21:14:56.222Z,1.83
2022-08-27T21:17:26.158Z,1.80
2022-08-27T21:19:52.848Z,2.00
2022-08-27T21:22:20.026Z,1.88
2022-08-27T21:24:47.566Z,1.75
2022-08-27T21:27:15.096Z,1.98
2022-08-27T21:29:41.931Z,2.50
2022-08-27T21:32:09.667Z,2.20
2022-08-27T21:34:36.748Z,2.40
2022-08-27T21:37:04.427Z,2.55
2022-08-27T21:39:32.822Z,2.42
2022-08-27T21:42:00.947Z,2.37
2022-08-27T21:44:28.449Z,1.80
2022-08-27T21:46:55.432Z,2.10
2022-08-27T21:49:22.127Z,2.22
2022-08-27T21:51:48.929Z,1.80
2022-08-27T21:54:15.544Z,2.47
2022-08-27T21:56:42.997Z,2.60
2022-08-27T21:59:09.675Z,2.75
2022-08-27T22:01:36.807Z,3.20
2022-08-27T22:04:03.772Z,3.17
2022-08-27T22:06:30.903Z,4.13
2022-08-27T22:08:57.523Z,2.53
2022-08-27T22:11:25.748Z,3.72
2022-08-27T22:13:53.133Z,3.85
2022-08-27T22:16:19.883Z,3.20
2022-08-27T22:18:46.531Z,3.27
2022-08-27T22:21:13.537Z,2.92
2022-08-27T22:23:42.321Z,3.65
2022-08-27T22:26:12.084Z,3.60
2022-08-27T22:28:38.740Z,3.13
2022-08-27T22:31:07.374Z,2.90
2022-08-27T22:33:34.241Z,2.97
2022-08-27T22:36:00.876Z,3.33
2022-08-27T22:38:27.483Z,2.60
2022-08-27T22:40:54.075Z,2.40
2022-08-27T22:43:20.694Z,2.13
2022-08-27T22:45:47.313Z,3.28
2022-08-27T22:48:14.326Z,3.70
2022-08-27T22:50:41.167Z,2.83
2022-08-27T22:53:08.264Z,3.03
2022-08-27T22:55:35.606Z,3.50
2022-08-27T22:58:02.317Z,3.13
2022-08-27T23:00:32.790Z,2.83
2022-08-27T23:03:01.138Z,2.92
2022-08-27T23:05:32.396Z,3.10
2022-08-27T23:08:11.335Z,2.47
2022-08-27T23:10:38.694Z,2.92
2022-08-27T23:13:05.547Z,3.20
2022-08-27T23:15:32.504Z,3.00
2022-08-27T23:18:00.603Z,3.00
2022-08-27T23:20:27.785Z,3.33
2022-08-27T23:22:54.545Z,2.90
2022-08-27T23:25:43.236Z,3.40
2022-08-27T23:28:14.382Z,3.35
2022-08-27T23:30:42.931Z,3.65
2022-08-27T23:33:09.696Z,3.07
2022-08-27T23:35:36.844Z,3.78
2022-08-27T23:38:03.767Z,3.03
2022-08-27T23:40:30.589Z,3.33
2022-08-27T23:42:57.303Z,3.38
2022-08-27T23:45:26.257Z,3.77
2022-08-27T23:47:53.425Z,3.10
2022-08-27T23:50:23.094Z,4.07
2022-08-27T23:52:59.100Z,3.97
2022-08-27T23:55:25.714Z,3.75
2022-08-27T23:57:57.407Z,3.60
